Time;durP1;ratioP1;P1;durP2;ratioP2;P2;SDS_P1;SDS_P2;PMS_P1;PMS_P2;Temp;Humidity;BMP_temperature;BMP_pressure;BME280_temperature;BME280_humidity;BME280_pressure;Samples;Min_cycle;Max_cycle;Signal;HPM_P1;HPM_P2
2024/02/09 00:00:40;;;;;;;19.10;9.70;;;;;;;1.71;89.71;98565.79;129749;1261;115106;-61
2024/02/09 00:04:07;;;;;;;18.10;10.50;;;;;;;1.72;90.28;98557.48;129879;1260;114704;-59
2024/02/09 00:07:13;;;;;;;19.40;11.20;;;;;;;1.70;89.91;98554.73;129490;1278;128160;-59
2024/02/09 00:10:19;;;;;;;12.80;7.90;;;;;;;1.70;89.96;98547.52;129781;1261;114883;-59
2024/02/09 00:13:20;;;;;;;21.10;10.60;;;;;;;1.71;90.05;98541.67;129944;1278;115141;-59
2024/02/09 00:16:22;;;;;;;20.00;9.30;;;;;;;1.72;90.45;98539.86;129813;1260;115379;-59
2024/02/09 00:19:24;;;;;;;19.40;10.20;;;;;;;1.72;90.49;98533.89;130063;1261;114810;-59
2024/02/09 00:22:26;;;;;;;19.00;9.70;;;;;;;1.72;90.15;98527.75;129865;1261;114817;-58
2024/02/09 00:25:29;;;;;;;17.00;10.40;;;;;;;1.74;90.27;98524.48;129650;1261;114786;-58
2024/02/09 00:28:31;;;;;;;11.90;5.70;;;;;;;1.75;90.49;98522.14;129869;1261;115315;-58
2024/02/09 00:31:33;;;;;;;17.90;9.90;;;;;;;1.74;90.56;98521.67;130014;1259;114869;-59
2024/02/09 00:34:35;;;;;;;17.00;8.30;;;;;;;1.73;90.43;98522.08;129939;1259;115056;-59
2024/02/09 00:37:38;;;;;;;13.00;7.90;;;;;;;1.71;90.70;98517.38;129862;1268;115333;-60
2024/02/09 00:40:40;;;;;;;15.80;7.50;;;;;;;1.69;90.89;98519.40;130023;1257;114806;-58
2024/02/09 00:43:42;;;;;;;13.30;7.80;;;;;;;1.68;90.82;98525.08;129644;1260;116397;-59
2024/02/09 00:46:46;;;;;;;17.20;8.90;;;;;;;1.69;90.86;98523.98;129780;1278;114770;-59
2024/02/09 00:49:48;;;;;;;14.10;7.60;;;;;;;1.73;90.78;98521.19;129820;1261;114914;-59
2024/02/09 00:52:51;;;;;;;10.30;4.50;;;;;;;1.75;91.24;98522.84;130002;1256;115199;-59
2024/02/09 00:55:56;;;;;;;6.60;2.90;;;;;;;1.75;90.81;98524.80;130079;1259;114786;-60
2024/02/09 00:58:58;;;;;;;9.80;5.10;;;;;;;1.75;90.96;98524.44;129950;1277;114736;-60
2024/02/09 01:02:01;;;;;;;10.10;6.10;;;;;;;1.76;91.11;98521.40;130096;1258;115181;-58
2024/02/09 01:05:04;;;;;;;11.00;6.10;;;;;;;1.75;91.11;98517.73;129809;1260;114775;-59
2024/02/09 01:08:06;;;;;;;13.00;5.80;;;;;;;1.75;91.31;98514.77;129890;1258;115787;-58
2024/02/09 01:11:09;;;;;;;12.70;7.30;;;;;;;1.74;91.49;98512.17;129981;1261;114846;-60
2024/02/09 02:47:19;;;;;;;16.00;9.80;;;;;;;1.72;93.65;98411.95;129760;1259;114738;-58
2024/02/09 03:07:06;;;;;;;12.10;6.50;;;;;;;1.73;94.02;98400.79;129577;1257;116490;-58
2024/02/09 03:10:12;;;;;;;12.70;5.40;;;;;;;1.73;93.96;98398.88;129823;1259;115220;-59
2024/02/09 03:13:14;;;;;;;15.60;8.90;;;;;;;1.72;94.17;98392.92;129551;1259;114786;-61
2024/02/09 03:16:17;;;;;;;15.20;7.90;;;;;;;1.73;94.21;98395.52;129681;1259;114706;-64
2024/02/09 03:19:19;;;;;;;8.10;3.70;;;;;;;1.75;94.28;98395.94;129979;1259;114720;-59
2024/02/09 03:22:21;;;;;;;18.20;10.00;;;;;;;1.75;94.32;98390.67;129992;1259;114793;-62
2024/02/09 03:25:23;;;;;;;13.70;8.40;;;;;;;1.75;94.49;98383.64;129573;1278;114885;-59
2024/02/09 03:28:25;;;;;;;11.80;6.90;;;;;;;1.71;94.49;98379.77;129807;1261;115145;-62
2024/02/09 03:31:31;;;;;;;13.90;7.60;;;;;;;1.70;94.77;98375.23;129904;1261;114713;-63
2024/02/09 03:34:33;;;;;;;9.10;4.60;;;;;;;1.70;94.91;98379.45;129998;1270;114731;-64
2024/02/09 03:37:35;;;;;;;16.70;9.10;;;;;;;1.70;94.77;98379.45;129642;1259;115020;-62
2024/02/09 03:40:38;;;;;;;16.80;9.20;;;;;;;1.73;95.02;98383.23;129933;1260;114765;-64
2024/02/09 03:43:41;;;;;;;15.90;8.60;;;;;;;1.73;94.82;98379.31;129872;1278;128409;-61
2024/02/09 03:46:44;;;;;;;12.90;6.90;;;;;;;1.75;94.89;98383.45;129824;1257;114724;-62
2024/02/09 03:49:49;;;;;;;6.20;3.20;;;;;;;1.75;95.19;98375.02;129899;1259;114728;-60
2024/02/09 03:52:51;;;;;;;11.20;6.10;;;;;;;1.73;95.01;98366.84;129854;1260;114776;-65
2024/02/09 03:55:52;;;;;;;18.50;8.90;;;;;;;1.73;95.06;98364.91;129853;1257;114728;-62
2024/02/09 03:58:55;;;;;;;14.30;9.30;;;;;;;1.73;95.07;98359.11;129869;1259;114869;-65
2024/02/09 04:01:59;;;;;;;14.10;7.90;;;;;;;1.73;95.48;98359.42;129610;1278;127576;-60
2024/02/09 04:05:03;;;;;;;15.10;8.70;;;;;;;1.73;95.04;98364.19;129895;1260;114760;-62
2024/02/09 04:08:05;;;;;;;17.40;9.20;;;;;;;1.74;95.33;98364.84;129541;1278;115423;-60
2024/02/09 04:11:07;;;;;;;9.30;5.20;;;;;;;1.76;95.51;98370.92;129883;1257;114854;-65
2024/02/09 04:14:09;;;;;;;14.80;9.60;;;;;;;1.73;95.37;98366.83;129788;1278;114802;-61
2024/02/09 04:17:11;;;;;;;13.40;7.20;;;;;;;1.76;95.58;98365.65;129806;1278;114995;-64
2024/02/09 04:20:13;;;;;;;14.90;7.70;;;;;;;1.75;95.63;98363.39;129593;1257;114849;-59
2024/02/09 04:23:17;;;;;;;13.10;7.70;;;;;;;1.75;95.51;98365.70;129794;1278;114732;-60
2024/02/09 04:26:19;;;;;;;10.90;6.10;;;;;;;1.74;95.68;98364.15;129848;1259;114650;-60
2024/02/09 04:29:22;;;;;;;8.40;4.60;;;;;;;1.73;95.68;98359.78;129891;1260;114740;-62
2024/02/09 04:32:24;;;;;;;7.80;4.80;;;;;;;1.76;95.91;98355.80;129582;1256;114924;-60
2024/02/09 04:35:26;;;;;;;13.40;7.40;;;;;;;1.76;95.81;98354.37;130012;1257;115281;-61
2024/02/09 04:38:27;;;;;;;13.30;8.20;;;;;;;1.76;95.70;98354.54;129972;1259;115166;-63
2024/02/09 04:41:29;;;;;;;11.00;5.60;;;;;;;1.77;96.01;98343.60;129739;1261;128276;-64
2024/02/09 04:44:33;;;;;;;13.60;8.40;;;;;;;1.78;95.93;98336.17;129782;1259;114694;-60
2024/02/09 04:47:35;;;;;;;13.00;8.60;;;;;;;1.78;96.24;98329.11;129811;1260;115385;-60
2024/02/09 04:50:38;;;;;;;30.20;13.50;;;;;;;1.79;96.01;98323.27;129812;1267;114801;-60
2024/02/09 04:53:40;;;;;;;39.80;22.20;;;;;;;1.79;96.34;98321.67;129820;1278;115432;-60
2024/02/09 04:56:42;;;;;;;13.10;9.20;;;;;;;1.80;96.40;98320.94;129785;1261;114697;-59
2024/02/09 04:59:44;;;;;;;13.80;9.20;;;;;;;1.81;96.52;98314.37;129812;1257;114697;-60
2024/02/09 05:02:46;;;;;;;14.30;8.80;;;;;;;1.82;96.29;98312.39;129863;1258;128419;-60
2024/02/09 05:05:50;;;;;;;15.10;7.40;;;;;;;1.86;96.39;98316.80;129858;1270;114754;-63
2024/02/09 05:08:57;;;;;;;12.40;7.60;;;;;;;1.88;96.55;98312.31;129931;1256;114901;-60
2024/02/09 05:11:59;;;;;;;9.90;6.30;;;;;;;1.90;96.67;98302.17;129663;1257;114856;-61
2024/02/09 05:15:01;;;;;;;10.90;5.80;;;;;;;1.90;96.57;98293.55;129996;1259;115839;-62
2024/02/09 05:18:03;;;;;;;11.70;7.00;;;;;;;1.91;96.83;98293.52;129831;1257;115749;-59
2024/02/09 05:21:05;;;;;;;9.90;6.10;;;;;;;1.90;96.70;98295.32;129479;1278;128376;-59
2024/02/09 05:24:07;;;;;;;11.20;6.60;;;;;;;1.91;96.64;98293.34;129785;1278;114722;-62
2024/02/09 05:27:10;;;;;;;9.10;6.50;;;;;;;1.93;96.59;98295.87;129959;1259;115398;-64
2024/02/09 05:30:13;;;;;;;8.70;5.40;;;;;;;1.96;96.83;98304.38;129606;1258;114800;-60
2024/02/09 05:33:16;;;;;;;9.20;4.50;;;;;;;1.97;96.73;98310.98;129778;1256;114817;-59
2024/02/09 05:36:22;;;;;;;10.40;6.50;;;;;;;1.93;96.82;98314.86;129862;1275;114729;-60
2024/02/09 05:39:24;;;;;;;12.20;7.60;;;;;;;1.92;97.03;98315.11;129608;1264;127907;-60
2024/02/09 05:42:26;;;;;;;10.10;6.10;;;;;;;1.92;96.85;98324.45;129704;1278;115090;-59
2024/02/09 05:45:30;;;;;;;4.90;3.60;;;;;;;1.91;96.90;98324.10;129915;1260;117140;-60
2024/02/09 05:48:32;;;;;;;9.40;4.80;;;;;;;1.94;97.04;98323.29;129857;1259;114741;-61
2024/02/09 05:51:34;;;;;;;9.10;6.50;;;;;;;1.94;96.99;98319.04;129800;1256;114686;-61
2024/02/09 05:54:37;;;;;;;9.00;5.60;;;;;;;1.94;96.92;98321.70;129848;1259;115007;-59
2024/02/09 05:57:38;;;;;;;9.10;5.00;;;;;;;1.94;96.93;98319.96;129699;1274;114791;-62
2024/02/09 06:00:40;;;;;;;7.90;5.60;;;;;;;1.95;97.04;98319.20;129716;1259;114743;-61
2024/02/09 06:03:43;;;;;;;11.60;7.20;;;;;;;1.95;97.20;98311.96;129949;1259;114735;-63
2024/02/09 06:06:45;;;;;;;9.00;5.60;;;;;;;1.96;97.23;98314.05;129643;1261;115243;-61
2024/02/09 06:09:47;;;;;;;10.20;5.60;;;;;;;1.95;97.18;98312.33;129891;1259;114722;-61
2024/02/09 06:12:49;;;;;;;12.10;7.50;;;;;;;1.96;96.99;98308.05;129820;1278;115379;-64
2024/02/09 06:15:51;;;;;;;11.00;7.10;;;;;;;2.00;97.18;98311.93;129858;1259;115142;-65
2024/02/09 06:18:54;;;;;;;22.40;14.90;;;;;;;2.02;97.13;98305.84;129879;1256;114717;-61
2024/02/09 06:21:56;;;;;;;13.10;8.30;;;;;;;2.04;97.28;98307.52;129755;1259;114721;-60
2024/02/09 06:24:58;;;;;;;12.30;6.30;;;;;;;2.04;97.49;98301.19;129912;1259;114734;-60
2024/02/09 06:28:02;;;;;;;13.30;8.20;;;;;;;2.04;97.44;98298.38;129731;1261;115402;-61
2024/02/09 06:31:05;;;;;;;13.70;8.90;;;;;;;2.04;97.44;98302.41;129852;1275;114742;-60
2024/02/09 06:34:08;;;;;;;12.50;7.90;;;;;;;2.06;97.43;98309.00;129771;1278;114879;-61
2024/02/09 06:37:10;;;;;;;8.80;5.30;;;;;;;2.08;97.51;98311.58;129866;1271;114748;-61
2024/02/09 06:40:13;;;;;;;8.80;5.10;;;;;;;2.07;97.47;98308.61;129845;1256;115508;-61
2024/02/09 06:43:19;;;;;;;14.80;7.60;;;;;;;2.07;97.68;98305.94;129562;1258;128499;-61
2024/02/09 06:46:21;;;;;;;10.90;6.60;;;;;;;2.09;97.76;98308.33;129547;1261;114867;-62
2024/02/09 06:49:28;;;;;;;10.20;7.90;;;;;;;2.09;97.89;98304.08;129828;1257;115394;-62
2024/02/09 06:52:31;;;;;;;11.20;6.50;;;;;;;2.12;97.79;98301.70;129873;1257;114860;-61
2024/02/09 06:55:36;;;;;;;10.80;6.70;;;;;;;2.15;97.71;98302.26;129858;1259;115388;-62
2024/02/09 06:58:39;;;;;;;10.70;6.30;;;;;;;2.16;98.06;98297.27;129652;1278;129096;-61
2024/02/09 07:01:43;;;;;;;10.90;6.70;;;;;;;2.16;97.87;98296.92;129878;1256;115269;-61
2024/02/09 07:04:50;;;;;;;9.20;5.30;;;;;;;2.21;98.08;98292.83;129588;1259;114796;-61
2024/02/09 07:07:53;;;;;;;10.30;6.90;;;;;;;2.25;98.05;98291.71;129820;1259;114720;-61
2024/02/09 07:10:56;;;;;;;9.80;5.80;;;;;;;2.27;97.90;98289.34;129729;1259;115682;-61
2024/02/09 07:13:59;;;;;;;8.90;5.40;;;;;;;2.30;97.86;98290.45;129523;1254;127822;-62
2024/02/09 07:17:01;;;;;;;12.60;6.30;;;;;;;2.33;98.11;98289.94;129722;1259;114732;-61
2024/02/09 07:20:03;;;;;;;10.20;6.60;;;;;;;2.36;98.05;98289.45;129809;1278;114783;-62
2024/02/09 07:23:05;;;;;;;9.90;6.60;;;;;;;2.37;98.09;98279.52;129659;1261;114831;-61
2024/02/09 07:26:08;;;;;;;5.30;3.50;;;;;;;2.38;98.08;98273.69;129771;1259;114726;-61
2024/02/09 07:29:10;;;;;;;10.70;5.20;;;;;;;2.40;98.24;98273.93;129833;1256;114847;-61
2024/02/09 07:32:13;;;;;;;9.60;5.60;;;;;;;2.41;97.98;98274.58;129811;1259;115389;-61
2024/02/09 07:35:15;;;;;;;7.80;4.20;;;;;;;2.44;98.10;98270.55;129844;1259;127724;-61
2024/02/09 07:38:17;;;;;;;7.60;4.60;;;;;;;2.46;98.06;98267.66;129742;1259;115345;-62
2024/02/09 07:41:19;;;;;;;9.00;6.50;;;;;;;2.48;97.98;98269.87;129956;1259;114719;-61
2024/02/09 07:44:22;;;;;;;18.50;10.60;;;;;;;2.50;98.28;98275.91;129645;1262;114933;-61
2024/02/09 07:47:23;;;;;;;8.50;5.90;;;;;;;2.56;98.23;98270.16;129848;1259;114735;-63
2024/02/09 07:50:26;;;;;;;9.80;5.20;;;;;;;2.60;98.31;98265.38;130037;1272;115163;-61
2024/02/09 07:53:30;;;;;;;9.60;6.60;;;;;;;2.66;98.21;98263.67;129808;1259;114780;-61
2024/02/09 07:56:33;;;;;;;7.10;5.10;;;;;;;2.70;98.23;98258.20;129802;1255;128841;-61
2024/02/09 07:59:37;;;;;;;10.50;6.20;;;;;;;2.74;98.30;98256.55;129865;1257;114768;-61
2024/02/09 08:02:40;;;;;;;9.10;6.00;;;;;;;2.81;98.30;98251.11;129888;1257;115088;-61
2024/02/09 08:05:42;;;;;;;6.10;3.90;;;;;;;2.88;98.43;98244.94;129852;1259;114729;-61
2024/02/09 08:08:45;;;;;;;4.90;3.30;;;;;;;2.90;98.02;98243.06;129737;1275;114791;-61
2024/02/09 08:11:48;;;;;;;7.40;5.20;;;;;;;2.90;97.98;98240.60;129632;1256;115100;-64
2024/02/09 08:14:50;;;;;;;4.70;2.40;;;;;;;2.89;97.91;98231.83;129933;1257;114754;-61
2024/02/09 08:17:52;;;;;;;10.90;7.10;;;;;;;2.91;97.94;98232.12;129665;1258;114738;-61
2024/02/09 08:20:54;;;;;;;4.90;3.20;;;;;;;2.93;98.12;98228.45;130030;1259;114865;-62
2024/02/09 08:23:56;;;;;;;8.10;5.50;;;;;;;2.93;98.00;98224.56;130045;1255;115262;-63
2024/02/09 08:26:58;;;;;;;10.80;6.00;;;;;;;2.95;98.08;98222.70;130042;1278;114779;-61
2024/02/09 08:30:01;;;;;;;7.00;3.70;;;;;;;2.98;97.96;98223.46;129858;1259;114799;-61
2024/02/09 08:33:03;;;;;;;7.50;4.50;;;;;;;3.00;98.15;98222.12;129792;1257;115503;-63
2024/02/09 08:36:06;;;;;;;9.90;6.30;;;;;;;3.05;98.38;98227.49;129948;1255;114726;-61
2024/02/09 08:39:08;;;;;;;9.20;5.80;;;;;;;3.07;98.21;98221.00;129607;1262;114847;-60
2024/02/09 08:42:11;;;;;;;12.00;7.20;;;;;;;3.11;98.43;98220.82;129750;1261;115269;-60
2024/02/09 08:45:13;;;;;;;9.80;6.10;;;;;;;3.14;98.18;98222.79;129925;1259;114635;-61
2024/02/09 08:48:15;;;;;;;11.70;6.50;;;;;;;3.18;98.34;98218.88;129893;1259;114811;-62
2024/02/09 08:51:17;;;;;;;5.70;3.10;;;;;;;3.21;98.35;98219.07;129858;1259;115164;-61
2024/02/09 08:54:20;;;;;;;7.40;3.80;;;;;;;3.23;98.42;98214.91;129920;1273;114821;-61
2024/02/09 08:57:22;;;;;;;10.50;6.70;;;;;;;3.24;98.28;98210.06;130020;1259;115236;-60
2024/02/09 09:00:24;;;;;;;11.50;7.10;;;;;;;3.28;98.38;98212.15;129392;1259;114838;-60
2024/02/09 09:03:27;;;;;;;11.90;7.00;;;;;;;3.37;98.52;98211.34;129886;1258;115386;-60
2024/02/09 09:06:30;;;;;;;9.50;5.80;;;;;;;3.45;98.61;98211.24;129825;1256;114856;-61
2024/02/09 09:09:33;;;;;;;12.60;7.70;;;;;;;3.52;98.63;98209.80;129896;1256;115087;-61
2024/02/09 09:12:37;;;;;;;11.20;7.00;;;;;;;3.61;98.78;98211.08;129797;1259;114721;-61
2024/02/09 09:15:41;;;;;;;7.50;4.50;;;;;;;3.73;98.95;98209.40;129801;1259;115190;-61
2024/02/09 09:18:45;;;;;;;12.60;6.50;;;;;;;3.79;98.79;98210.81;129830;1259;114833;-60
2024/02/09 09:21:47;;;;;;;14.20;9.60;;;;;;;3.85;98.66;98207.31;129810;1257;114801;-61
2024/02/09 09:24:50;;;;;;;11.80;7.20;;;;;;;3.94;98.84;98204.52;129741;1259;115292;-61
2024/02/09 09:27:52;;;;;;;11.30;7.10;;;;;;;4.03;98.57;98200.48;129794;1257;114700;-61
2024/02/09 09:30:54;;;;;;;7.40;4.50;;;;;;;4.05;98.48;98193.64;129793;1257;114729;-60
2024/02/09 09:33:57;;;;;;;13.60;9.10;;;;;;;4.08;98.37;98192.41;129513;1278;114834;-61
2024/02/09 09:36:59;;;;;;;15.10;9.00;;;;;;;4.18;98.78;98182.86;129879;1259;114734;-61
2024/02/09 09:40:02;;;;;;;12.60;8.00;;;;;;;4.30;98.80;98180.36;129796;1259;114732;-60
2024/02/09 09:43:05;;;;;;;15.20;9.10;;;;;;;4.41;98.95;98178.84;129774;1257;114736;-63
2024/02/09 09:46:11;;;;;;;7.40;5.00;;;;;;;4.59;99.39;98180.80;129748;1259;114821;-65
2024/02/09 09:49:14;;;;;;;12.20;7.90;;;;;;;4.76;99.19;98184.61;130131;1257;128814;-64
2024/02/09 09:52:23;;;;;;;11.90;7.90;;;;;;;4.86;98.92;98188.77;130018;1259;114810;-65
2024/02/09 09:55:29;;;;;;;8.90;5.30;;;;;;;4.99;98.91;98183.75;129525;1264;114789;-64
2024/02/09 09:58:31;;;;;;;16.80;11.20;;;;;;;5.10;98.70;98172.30;130033;1262;114742;-63
2024/02/09 10:01:34;;;;;;;17.30;11.10;;;;;;;5.15;98.28;98172.35;130033;1278;115305;-65
2024/02/09 10:04:36;;;;;;;18.90;10.70;;;;;;;5.17;98.36;98169.59;130064;1255;114778;-66
2024/02/09 10:07:40;;;;;;;14.80;9.70;;;;;;;5.29;98.66;98162.95;130163;1273;114740;-64
2024/02/09 10:10:42;;;;;;;16.10;10.20;;;;;;;5.45;98.89;98154.38;129726;1259;115507;-64
2024/02/09 10:13:44;;;;;;;16.00;11.10;;;;;;;5.57;98.82;98153.95;130258;1261;114827;-63
2024/02/09 10:16:46;;;;;;;16.10;9.70;;;;;;;5.63;98.23;98158.00;130177;1260;114802;-70
2024/02/09 10:19:48;;;;;;;19.20;11.70;;;;;;;5.63;98.01;98157.46;130282;1257;114696;-67
2024/02/09 10:22:50;;;;;;;15.60;9.40;;;;;;;5.61;97.52;98154.95;129983;1277;114911;-75
2024/02/09 10:25:52;;;;;;;17.90;11.20;;;;;;;5.60;97.74;98150.56;130235;1278;114726;-73
2024/02/09 10:28:54;;;;;;;18.40;10.30;;;;;;;5.61;97.84;98151.75;130276;1261;115301;-65
2024/02/09 10:31:56;;;;;;;12.50;7.40;;;;;;;5.68;98.13;98152.39;129475;1261;114821;-71
2024/02/09 10:34:58;;;;;;;20.80;12.50;;;;;;;5.73;98.04;98144.13;130151;1260;114783;-71
2024/02/09 10:38:01;;;;;;;19.00;11.90;;;;;;;5.76;98.12;98134.30;130263;1256;114693;-70
2024/02/09 10:41:04;;;;;;;12.90;7.80;;;;;;;5.85;98.29;98131.09;130120;1257;114712;-70
2024/02/09 10:44:08;;;;;;;13.20;7.80;;;;;;;5.92;98.12;98130.12;130260;1256;114821;-65
2024/02/09 10:47:11;;;;;;;14.40;8.80;;;;;;;5.99;98.18;98127.52;130307;1262;128847;-64
2024/02/09 10:50:14;;;;;;;22.10;12.90;;;;;;;6.08;98.28;98117.78;130215;1259;114742;-70
2024/02/09 10:53:23;;;;;;;19.00;11.20;;;;;;;6.16;98.36;98120.98;130246;1259;114794;-66
2024/02/09 10:56:27;;;;;;;22.90;14.10;;;;;;;6.29;98.61;98113.75;130075;1257;114769;-63
2024/02/09 10:59:29;;;;;;;21.90;13.00;;;;;;;6.44;98.96;98104.55;130154;1257;114853;-66
2024/02/09 11:02:35;;;;;;;15.30;8.50;;;;;;;6.55;98.63;98102.19;130142;1259;114695;-66
2024/02/09 11:05:38;;;;;;;23.60;15.20;;;;;;;6.68;98.42;98109.31;130305;1259;114700;-63
2024/02/09 11:08:40;;;;;;;21.60;13.30;;;;;;;6.78;98.49;98104.05;129697;1259;115084;-64
2024/02/09 11:11:44;;;;;;;21.90;11.90;;;;;;;6.85;98.31;98104.04;130284;1260;115499;-63
2024/02/09 11:14:46;;;;;;;19.10;11.50;;;;;;;6.93;98.49;98098.52;130185;1259;114789;-63
2024/02/09 11:17:49;;;;;;;16.00;7.90;;;;;;;7.04;98.50;98092.80;130291;1259;114725;-68
2024/02/09 11:20:59;;;;;;;20.90;12.90;;;;;;;7.11;98.48;98083.75;130306;1257;129041;-72
2024/02/09 11:24:01;;;;;;;27.70;15.90;;;;;;;7.15;98.13;98081.88;129702;1257;116362;-61
2024/02/09 11:27:05;;;;;;;12.20;6.20;;;;;;;7.24;98.63;98076.66;129643;1259;115275;-64
2024/02/09 11:30:08;;;;;;;18.90;11.10;;;;;;;7.33;97.99;98076.91;130117;1259;114713;-64
2024/02/09 11:33:11;;;;;;;20.90;13.00;;;;;;;7.36;98.17;98077.03;130098;1259;114737;-65
2024/02/09 11:36:13;;;;;;;20.70;13.60;;;;;;;7.45;98.34;98075.53;130345;1259;114731;-64
2024/02/09 11:39:22;;;;;;;20.00;13.60;;;;;;;7.54;98.49;98076.09;130167;1259;114696;-66
2024/02/09 11:42:24;;;;;;;24.80;13.30;;;;;;;7.63;98.45;98066.38;130101;1259;114730;-69
2024/02/09 11:45:26;;;;;;;22.00;12.30;;;;;;;7.78;98.76;98059.95;130096;1259;115428;-66
2024/02/09 11:48:28;;;;;;;26.70;14.80;;;;;;;7.97;98.71;98054.98;130256;1259;114760;-74
2024/02/09 11:51:30;;;;;;;26.10;14.10;;;;;;;8.20;99.31;98055.08;130194;1259;114694;-64
2024/02/09 11:54:33;;;;;;;22.70;13.90;;;;;;;8.42;99.73;98050.04;129406;1259;114784;-66
2024/02/09 11:57:36;;;;;;;28.70;16.30;;;;;;;8.61;99.10;98045.70;130193;1256;114708;-66
2024/02/09 12:00:40;;;;;;;32.10;18.70;;;;;;;8.72;98.76;98043.27;130115;1259;114837;-69
2024/02/09 12:03:42;;;;;;;22.00;13.70;;;;;;;8.89;99.20;98037.81;129670;1262;115065;-64
2024/02/09 12:06:44;;;;;;;24.70;13.90;;;;;;;9.02;98.52;98033.46;130111;1256;114710;-64
2024/02/09 12:09:49;;;;;;;22.40;12.30;;;;;;;9.14;98.44;98023.27;130271;1275;114730;-64
2024/02/09 12:12:51;;;;;;;;;;;;;;;9.22;97.99;98022.25;130213;1259;114716;-63
2024/02/09 12:15:53;;;;;;;24.00;14.40;;;;;;;9.29;97.95;98022.42;129549;1259;114744;-64
2024/02/09 12:18:57;;;;;;;26.40;16.20;;;;;;;9.33;97.89;98022.81;129685;1259;114959;-61
2024/02/09 12:22:00;;;;;;;27.10;16.80;;;;;;;9.34;97.67;98024.30;131713;1260;115399;-64
2024/02/09 12:25:04;;;;;;;27.00;15.20;;;;;;;9.32;97.35;98025.36;129718;1262;114730;-64
2024/02/09 12:28:09;;;;;;;27.90;14.90;;;;;;;9.26;97.31;98027.98;129649;1260;114714;-60
2024/02/09 12:31:12;;;;;;;25.60;15.50;;;;;;;9.20;97.11;98022.95;129699;1262;114787;-60
2024/02/09 12:34:16;;;;;;;34.70;20.40;;;;;;;9.16;97.25;98018.84;129781;1271;114742;-60
2024/02/09 12:37:18;;;;;;;28.60;16.30;;;;;;;9.15;97.55;98021.58;129557;1265;114821;-60
2024/02/09 12:40:21;;;;;;;30.60;17.90;;;;;;;9.20;97.91;98020.80;129713;1259;114724;-66
2024/02/09 12:43:23;;;;;;;26.60;16.90;;;;;;;9.27;97.94;98015.98;129888;1259;114937;-61
2024/02/09 12:46:26;;;;;;;31.80;18.10;;;;;;;9.32;97.75;98015.91;129809;1259;114776;-60
2024/02/09 12:49:30;;;;;;;25.60;15.00;;;;;;;9.39;97.84;98011.27;129688;1259;114761;-60
2024/02/09 12:52:32;;;;;;;31.10;18.20;;;;;;;9.37;97.55;98006.59;129727;1257;128805;-60
2024/02/09 12:55:34;;;;;;;28.40;16.90;;;;;;;9.39;97.74;98003.75;129844;1260;115205;-60
2024/02/09 12:58:37;;;;;;;31.30;17.20;;;;;;;9.42;97.91;98006.15;129813;1259;115077;-64
2024/02/09 13:01:39;;;;;;;30.70;17.20;;;;;;;9.48;98.22;98007.66;129690;1259;114779;-65
2024/02/09 13:04:41;;;;;;;28.40;16.30;;;;;;;9.50;97.87;98009.80;129945;1259;114789;-60
2024/02/09 13:07:43;;;;;;;32.00;19.30;;;;;;;9.49;97.57;98003.31;129772;1259;114784;-62
2024/02/09 13:10:46;;;;;;;28.90;19.20;;;;;;;9.46;97.67;98005.86;129424;1256;116096;-65
2024/02/09 13:13:48;;;;;;;34.40;20.10;;;;;;;9.47;97.92;98003.48;129622;1259;115392;-62
2024/02/09 13:16:50;;;;;;;39.30;22.50;;;;;;;9.48;97.94;97997.00;129548;1257;114866;-61
2024/02/09 13:19:53;;;;;;;45.70;27.30;;;;;;;9.47;97.70;97994.39;129711;1278;114827;-65
2024/02/09 13:22:55;;;;;;;49.10;28.90;;;;;;;9.42;97.62;97992.33;129807;1259;114749;-60
2024/02/09 13:26:00;;;;;;;38.80;22.60;;;;;;;9.40;97.70;97991.38;129608;1278;222330;-61
2024/02/09 13:29:02;;;;;;;38.50;20.60;;;;;;;9.43;98.12;97988.96;129712;1259;115087;-60
2024/02/09 13:32:05;;;;;;;40.30;23.30;;;;;;;9.47;98.23;97986.58;129699;1278;114839;-60
2024/02/09 13:35:11;;;;;;;36.10;22.10;;;;;;;9.50;98.28;97989.14;129773;1268;116117;-61
2024/02/09 13:38:13;;;;;;;44.60;24.30;;;;;;;9.52;98.09;97990.59;129700;1260;115206;-66
2024/02/09 13:41:15;;;;;;;41.90;24.80;;;;;;;9.49;97.76;97987.46;129803;1259;114774;-62
2024/02/09 13:44:18;;;;;;;40.30;23.90;;;;;;;9.44;97.68;97988.23;129696;1259;114792;-61
2024/02/09 13:47:20;;;;;;;32.60;18.70;;;;;;;9.36;97.54;97985.97;129545;1260;115337;-60
2024/02/09 13:50:25;;;;;;;37.70;22.70;;;;;;;9.27;97.47;97985.13;129729;1260;115110;-60
2024/02/09 13:53:27;;;;;;;34.90;20.50;;;;;;;9.20;97.60;97986.09;129643;1260;128788;-61
2024/02/09 13:56:32;;;;;;;73.50;42.30;;;;;;;9.13;97.72;97985.06;129772;1257;114792;-62
2024/02/09 13:59:37;;;;;;;83.00;49.30;;;;;;;9.08;97.78;97987.23;129591;1262;114843;-60
2024/02/09 14:02:40;;;;;;;53.20;34.00;;;;;;;9.04;98.09;97987.20;129551;1263;114851;-63
2024/02/09 14:05:42;;;;;;;46.40;26.60;;;;;;;9.02;98.29;97990.37;129737;1264;114728;-61
2024/02/09 14:08:47;;;;;;;43.50;27.60;;;;;;;9.03;98.34;97987.44;129689;1259;115094;-60
2024/02/09 14:11:49;;;;;;;;;;;;;;;9.06;98.61;97988.59;129506;1267;114870;-62
2024/02/09 14:14:52;;;;;;;41.00;22.80;;;;;;;9.07;98.70;97978.55;129833;1259;114778;-60
2024/02/09 14:17:54;;;;;;;47.00;25.60;;;;;;;9.08;98.70;97977.02;129735;1259;114733;-60
2024/02/09 14:20:58;;;;;;;50.00;25.70;;;;;;;9.13;98.95;97983.98;129729;1259;115097;-60
2024/02/09 14:24:00;;;;;;;45.80;27.80;;;;;;;9.16;99.01;97979.30;129745;1259;115277;-60
2024/02/09 14:27:03;;;;;;;47.80;28.00;;;;;;;9.18;98.89;97980.87;129672;1268;114772;-60
2024/02/09 14:30:07;;;;;;;54.50;33.40;;;;;;;9.20;98.92;97984.09;129832;1270;114731;-60
2024/02/09 14:33:08;;;;;;;49.50;31.80;;;;;;;9.22;98.97;97987.55;129740;1259;114720;-59
2024/02/09 14:36:17;;;;;;;52.00;32.50;;;;;;;9.23;99.10;97984.36;129841;1259;115192;-61
2024/02/09 14:39:19;;;;;;;54.50;33.60;;;;;;;9.26;98.98;97991.29;129714;1259;114696;-60
2024/02/09 14:42:24;;;;;;;68.60;42.70;;;;;;;9.27;98.84;97988.90;129697;1268;114780;-62
2024/02/09 14:45:26;;;;;;;65.00;40.90;;;;;;;9.26;98.84;97991.11;129770;1272;114716;-60
2024/02/09 14:48:28;;;;;;;61.20;39.20;;;;;;;9.26;98.75;97988.63;130006;1259;114806;-60
2024/02/09 14:51:31;;;;;;;49.40;31.80;;;;;;;9.26;98.82;97989.31;129775;1270;114722;-60
2024/02/09 14:54:40;;;;;;;59.00;35.90;;;;;;;9.25;98.65;97989.96;129602;1262;114924;-63
2024/02/09 14:57:45;;;;;;;62.30;35.80;;;;;;;9.23;98.86;97991.16;129784;1278;114766;-60
2024/02/09 15:00:48;;;;;;;60.60;36.20;;;;;;;9.23;98.73;97990.82;129883;1259;114728;-60
2024/02/09 15:03:51;;;;;;;53.10;31.50;;;;;;;9.23;98.89;97988.52;129671;1259;114716;-60
2024/02/09 15:06:56;;;;;;;56.60;31.10;;;;;;;9.21;98.93;97987.94;129758;1260;114993;-60
2024/02/09 15:09:58;;;;;;;62.30;42.40;;;;;;;9.20;98.79;97991.55;129829;1259;114718;-60
2024/02/09 15:13:00;;;;;;;60.70;36.50;;;;;;;9.20;98.85;97985.04;129917;1259;114802;-62
2024/02/09 15:16:04;;;;;;;67.40;44.60;;;;;;;9.19;98.85;97983.09;129773;1260;114786;-60
2024/02/09 15:19:11;;;;;;;68.40;45.20;;;;;;;9.20;99.11;97984.44;129769;1271;115050;-60
2024/02/09 15:22:13;;;;;;;77.40;49.10;;;;;;;9.21;98.85;97989.70;129596;1261;114851;-60
2024/02/09 15:25:16;;;;;;;69.90;45.10;;;;;;;9.21;98.95;97987.56;129662;1259;114693;-61
2024/02/09 15:28:24;;;;;;;82.00;54.70;;;;;;;9.20;98.89;97986.41;129800;1259;114967;-60
2024/02/09 15:31:29;;;;;;;73.40;48.10;;;;;;;9.18;98.96;97987.25;129463;1268;116390;-59
2024/02/09 15:34:32;;;;;;;71.10;47.70;;;;;;;9.17;99.06;97989.38;129468;1260;128879;-60
2024/02/09 15:37:35;;;;;;;71.50;45.10;;;;;;;9.15;98.89;97994.13;129731;1259;114693;-61
2024/02/09 15:40:37;;;;;;;67.80;41.60;;;;;;;9.12;98.83;97995.80;129737;1259;114879;-60
2024/02/09 15:43:39;;;;;;;64.80;39.40;;;;;;;9.10;98.90;97993.25;129743;1271;115307;-60
2024/02/09 15:46:42;;;;;;;52.70;34.20;;;;;;;9.08;98.74;97993.09;129911;1271;114679;-63
2024/02/09 15:49:44;;;;;;;60.00;38.30;;;;;;;9.06;98.77;97993.12;129785;1263;115093;-60